首页
METAR-TAF:

METAR-TAF

机场 :

Killarney, 爱尔兰

纬度: 52-10-51N, 经度: 9-31-26W, 海拔: 34米

当前天气观测

该预报发布于7小时和10分钟前的18:00 UTC
风速6节,风向北转西北,在西转西北之间变化
温度 16°C
湿度 72%
气压 1037 hPa
能见度10公里或以上
多云层高于3200英尺

METAR: EIKY 261800Z 33006KT 290V010 9999 BKN032 16/11 Q1037

时间: 02:10 (01:10 UTC)

预报

该预报发布于8小时和10分钟前的17:00 UTC
预报有效从26日的 18点(UTC)到 27日的 03点(UTC)
风速5节,风向北转西北
能见度10公里或以上
散云层高于2000英尺
散云层高于4000英尺

TAF: EIKY 261700Z 2618/2703 34005KT 9999 SCT020 SCT040

超过4000个机场的气象观测和天气预报(METAR&TAF报告)。

可查询的气象台以黄色和红色小点在地图上表示。

将鼠标移到小点上方,可查看气象台名称。

然后点击查看天气观测和预报。

如需切换地图:点击带黑十字的绿色按钮放大地图;点击带横线的绿色按钮缩小地图;或者点击绿色箭头查看邻近地区的地图。


METAR-TAF: